Time;durP1;ratioP1;P1;durP2;ratioP2;P2;SDS_P1;SDS_P2;PMS_P1;PMS_P2;Temp;Humidity;BMP_temperature;BMP_pressure;BME280_temperature;BME280_humidity;BME280_pressure;Samples;Min_cycle;Max_cycle;Signal;HPM_P1;HPM_P2
2022/11/19 00:00:03;;;;;;;0.20;0.20;;;;;;;;;;5093860;28;20038;-84
2022/11/19 00:02:28;;;;;;;0.25;0.25;;;;;;;;;;5092194;28;20036;-83
2022/11/19 00:04:54;;;;;;;0.25;0.20;;;;;;;;;;5093145;28;20041;-84
2022/11/19 00:07:19;;;;;;;0.25;0.20;;;;;;;;;;5093322;28;20024;-85
2022/11/19 00:09:44;;;;;;;0.47;0.15;;;;;;;;;;5093676;28;20020;-84
2022/11/19 00:14:53;;;;;;;0.10;0.10;;;;;;;;;;5092359;28;20446;-84
2022/11/19 00:17:19;;;;;;;0.30;0.30;;;;;;;;;;5092591;28;20028;-86
2022/11/19 00:19:44;;;;;;;0.25;0.25;;;;;;;;;;5093437;28;20081;-85
2022/11/19 00:22:10;;;;;;;0.25;0.20;;;;;;;;;;5092586;28;20035;-85
2022/11/19 00:24:35;;;;;;;0.17;0.13;;;;;;;;;;5093134;28;20384;-84
2022/11/19 00:27:01;;;;;;;0.25;0.20;;;;;;;;;;5088349;28;20458;-84
2022/11/19 00:29:26;;;;;;;0.20;0.20;;;;;;;;;;5091727;28;20035;-84
2022/11/19 00:31:51;;;;;;;0.10;0.10;;;;;;;;;;5091672;28;20024;-86
2022/11/19 00:34:17;;;;;;;0.10;0.10;;;;;;;;;;5091050;28;20031;-85
2022/11/19 00:36:42;;;;;;;0.10;0.10;;;;;;;;;;5087908;28;20029;-84
2022/11/19 00:39:08;;;;;;;0.10;0.10;;;;;;;;;;5092382;28;20024;-85
2022/11/19 00:41:33;;;;;;;0.10;0.10;;;;;;;;;;5092434;28;20050;-85
2022/11/19 00:43:58;;;;;;;0.10;0.10;;;;;;;;;;5089082;28;20076;-83
2022/11/19 00:46:26;;;;;;;0.15;0.15;;;;;;;;;;5089478;28;20475;-86
2022/11/19 00:48:54;;;;;;;0.10;0.10;;;;;;;;;;5092806;28;20031;-85
2022/11/19 00:51:21;;;;;;;0.00;0.00;;;;;;;;;;5088862;28;20032;-85
2022/11/19 00:53:46;;;;;;;0.17;0.15;;;;;;;;;;5089943;28;20107;-84
2022/11/19 00:56:14;;;;;;;0.28;0.28;;;;;;;;;;5090826;28;20154;-84
2022/11/19 00:58:41;;;;;;;0.55;0.55;;;;;;;;;;5091013;28;20031;-85
2022/11/19 01:01:08;;;;;;;1.05;0.50;;;;;;;;;;5089581;28;20031;-84
2022/11/19 01:03:34;;;;;;;0.65;0.40;;;;;;;;;;5089838;28;20486;-85
2022/11/19 01:05:59;;;;;;;0.52;0.52;;;;;;;;;;5092471;28;20024;-82
2022/11/19 01:08:25;;;;;;;0.20;0.20;;;;;;;;;;5091418;28;20071;-84
2022/11/19 01:10:51;;;;;;;0.45;0.38;;;;;;;;;;5090993;28;20031;-84
2022/11/19 01:13:34;;;;;;;0.30;0.30;;;;;;;;;;5092416;28;20040;-86
2022/11/19 01:16:02;;;;;;;0.25;0.20;;;;;;;;;;5090693;28;20027;-84
2022/11/19 01:18:28;;;;;;;0.20;0.20;;;;;;;;;;5089893;28;20184;-84
2022/11/19 01:20:54;;;;;;;0.20;0.20;;;;;;;;;;5090784;28;20055;-84
2022/11/19 01:23:19;;;;;;;0.20;0.20;;;;;;;;;;5091657;28;20032;-86
2022/11/19 01:25:45;;;;;;;0.25;0.25;;;;;;;;;;5091604;28;20110;-85
2022/11/19 01:28:10;;;;;;;0.70;0.30;;;;;;;;;;5089907;28;20055;-84
2022/11/19 01:30:39;;;;;;;0.73;0.22;;;;;;;;;;5090935;28;20031;-84
2022/11/19 01:33:05;;;;;;;0.20;0.20;;;;;;;;;;5091998;28;20031;-81
2022/11/19 01:35:31;;;;;;;0.88;0.75;;;;;;;;;;5091558;28;20028;-81
2022/11/19 01:37:56;;;;;;;0.30;0.30;;;;;;;;;;5090436;28;20031;-84
2022/11/19 01:40:22;;;;;;;0.25;0.25;;;;;;;;;;5091637;28;20054;-83
2022/11/19 01:42:50;;;;;;;0.10;0.10;;;;;;;;;;5092242;28;20032;-83
2022/11/19 01:45:27;;;;;;;0.77;0.38;;;;;;;;;;5090941;28;20040;-84
2022/11/19 01:47:55;;;;;;;0.30;0.30;;;;;;;;;;5090851;28;20042;-83
2022/11/19 01:50:22;;;;;;;0.25;0.25;;;;;;;;;;5090249;28;20032;-81
2022/11/19 01:52:48;;;;;;;0.40;0.40;;;;;;;;;;5090778;28;20032;-81
2022/11/19 01:55:14;;;;;;;0.30;0.30;;;;;;;;;;5088304;28;20028;-81
2022/11/19 01:57:40;;;;;;;1.40;0.75;;;;;;;;;;5090041;28;20020;-84
2022/11/19 02:00:07;;;;;;;0.47;0.40;;;;;;;;;;5090013;28;20472;-82
2022/11/19 02:02:33;;;;;;;0.70;0.47;;;;;;;;;;5087850;28;20382;-83
2022/11/19 02:04:59;;;;;;;0.70;0.30;;;;;;;;;;5089213;28;20046;-84
2022/11/19 02:07:28;;;;;;;0.30;0.30;;;;;;;;;;5091708;28;20031;-83
2022/11/19 02:10:02;;;;;;;0.25;0.20;;;;;;;;;;5093752;28;20047;-83
2022/11/19 02:13:06;;;;;;;0.20;0.20;;;;;;;;;;5092345;28;20028;-84
2022/11/19 02:15:47;;;;;;;0.57;0.30;;;;;;;;;;5094463;28;20072;-83
2022/11/19 02:18:40;;;;;;;0.32;0.28;;;;;;;;;;5093372;28;20510;-84
2022/11/19 02:21:14;;;;;;;0.85;0.40;;;;;;;;;;5092734;28;20081;-83
2022/11/19 02:24:04;;;;;;;0.13;0.10;;;;;;;;;;5095125;28;20361;-84
2022/11/19 02:26:35;;;;;;;0.25;0.25;;;;;;;;;;5094461;28;20024;-85
2022/11/19 02:29:38;;;;;;;1.27;0.82;;;;;;;;;;5095808;28;20472;-82
2022/11/19 02:32:15;;;;;;;0.20;0.20;;;;;;;;;;5055865;28;20024;-83
2022/11/19 02:34:56;;;;;;;0.47;0.40;;;;;;;;;;5093137;28;20044;-85
2022/11/19 02:37:35;;;;;;;0.43;0.38;;;;;;;;;;5095396;28;20424;-84
2022/11/19 02:40:41;;;;;;;0.52;0.40;;;;;;;;;;5094768;28;20066;-83
2022/11/19 02:43:14;;;;;;;1.02;0.60;;;;;;;;;;5093431;28;20036;-83
2022/11/19 02:45:42;;;;;;;2.05;0.93;;;;;;;;;;5095912;28;20472;-81
2022/11/19 02:48:30;;;;;;;0.30;0.30;;;;;;;;;;5093933;28;20077;-84
2022/11/19 02:51:01;;;;;;;0.63;0.47;;;;;;;;;;5092629;28;20090;-84
2022/11/19 02:53:27;;;;;;;0.15;0.15;;;;;;;;;;5095939;28;20479;-82
2022/11/19 02:56:11;;;;;;;0.10;0.10;;;;;;;;;;5095956;28;20057;-84
2022/11/19 03:04:29;;;;;;;0.38;0.38;;;;;;;;;;5093723;28;20489;-84
2022/11/19 03:07:11;;;;;;;0.30;0.20;;;;;;;;;;5122862;27;20035;-85
2022/11/19 03:09:55;;;;;;;0.10;0.10;;;;;;;;;;5092406;28;20024;-83
2022/11/19 03:12:35;;;;;;;0.30;0.30;;;;;;;;;;5094945;28;20035;-84
2022/11/19 03:17:59;;;;;;;0.20;0.20;;;;;;;;;;5092772;28;20047;-85
2022/11/19 03:20:31;;;;;;;2.85;0.65;;;;;;;;;;5089809;28;20031;-85
2022/11/19 03:23:03;;;;;;;0.50;0.40;;;;;;;;;;5091911;28;20057;-84
2022/11/19 03:25:44;;;;;;;0.22;0.22;;;;;;;;;;5093910;28;20034;-84
2022/11/19 03:28:15;;;;;;;1.25;0.75;;;;;;;;;;5089939;28;20028;-84
2022/11/19 03:30:42;;;;;;;0.70;0.63;;;;;;;;;;5091564;28;20027;-84
2022/11/19 03:33:37;;;;;;;0.35;0.32;;;;;;;;;;5094193;28;20028;-83
2022/11/19 03:36:21;;;;;;;0.73;0.40;;;;;;;;;;5090246;28;20115;-84
2022/11/19 03:38:51;;;;;;;0.32;0.32;;;;;;;;;;5091719;28;20024;-84
2022/11/19 03:41:19;;;;;;;0.55;0.47;;;;;;;;;;5092912;28;20068;-84
2022/11/19 03:43:51;;;;;;;0.35;0.32;;;;;;;;;;5092295;28;20028;-84
2022/11/19 03:46:19;;;;;;;0.80;0.60;;;;;;;;;;5091954;28;20047;-84
2022/11/19 03:48:48;;;;;;;0.98;0.57;;;;;;;;;;5094197;28;20102;-85
2022/11/19 03:51:22;;;;;;;0.77;0.60;;;;;;;;;;5091246;28;20046;-84
2022/11/19 03:53:48;;;;;;;0.43;0.40;;;;;;;;;;5093074;28;20042;-84
2022/11/19 03:56:17;;;;;;;1.75;1.30;;;;;;;;;;5093315;28;20024;-84
2022/11/19 03:58:45;;;;;;;0.70;0.28;;;;;;;;;;5093574;28;20483;-84
2022/11/19 04:01:12;;;;;;;0.80;0.70;;;;;;;;;;5091915;28;20035;-85
2022/11/19 04:03:37;;;;;;;1.63;1.17;;;;;;;;;;5087812;28;20031;-85
2022/11/19 04:06:04;;;;;;;0.52;0.47;;;;;;;;;;5094874;28;20490;-85
2022/11/19 04:08:30;;;;;;;0.40;0.40;;;;;;;;;;5095021;28;20032;-83
2022/11/19 04:10:57;;;;;;;0.40;0.40;;;;;;;;;;5091839;28;20073;-84
2022/11/19 04:13:22;;;;;;;0.65;0.55;;;;;;;;;;5095087;28;20107;-84
2022/11/19 04:15:47;;;;;;;0.50;0.40;;;;;;;;;;5093882;28;20074;-84
2022/11/19 04:18:13;;;;;;;1.17;0.50;;;;;;;;;;5092825;28;20036;-84
2022/11/19 04:20:38;;;;;;;0.60;0.60;;;;;;;;;;5095151;28;20045;-84
2022/11/19 04:23:04;;;;;;;2.35;1.17;;;;;;;;;;5093049;28;21452;-83
2022/11/19 04:25:29;;;;;;;1.58;0.95;;;;;;;;;;5093688;28;20026;-83
2022/11/19 04:27:55;;;;;;;1.05;0.77;;;;;;;;;;5094272;28;20032;-84
2022/11/19 04:30:20;;;;;;;2.25;1.00;;;;;;;;;;5095071;28;20573;-84
2022/11/19 04:32:46;;;;;;;1.77;0.80;;;;;;;;;;5094075;28;20151;-84
2022/11/19 04:35:12;;;;;;;1.02;0.73;;;;;;;;;;5094715;28;20398;-84
2022/11/19 04:37:38;;;;;;;0.85;0.68;;;;;;;;;;5093898;28;20031;-82
2022/11/19 04:40:04;;;;;;;0.38;0.38;;;;;;;;;;5091821;28;20028;-82
2022/11/19 04:42:29;;;;;;;1.38;0.70;;;;;;;;;;5093883;28;20028;-83
2022/11/19 04:44:55;;;;;;;0.95;0.80;;;;;;;;;;5092238;28;20055;-82
2022/11/19 04:47:20;;;;;;;0.70;0.70;;;;;;;;;;5091093;28;20428;-82
2022/11/19 04:49:45;;;;;;;0.65;0.50;;;;;;;;;;5093801;28;20036;-83
2022/11/19 04:52:11;;;;;;;2.45;0.82;;;;;;;;;;5092551;28;20016;-83
2022/11/19 04:54:36;;;;;;;0.63;0.52;;;;;;;;;;5090669;28;20024;-84
2022/11/19 04:57:02;;;;;;;1.10;0.80;;;;;;;;;;5093711;28;20024;-84
2022/11/19 04:59:27;;;;;;;0.73;0.57;;;;;;;;;;5094520;28;20020;-85
2022/11/19 05:01:53;;;;;;;0.32;0.28;;;;;;;;;;5094182;28;20028;-83
2022/11/19 05:04:18;;;;;;;1.17;0.70;;;;;;;;;;5093329;28;20027;-84
2022/11/19 05:06:43;;;;;;;1.00;0.90;;;;;;;;;;5089144;28;20107;-83
2022/11/19 05:09:09;;;;;;;3.88;0.95;;;;;;;;;;5092661;28;20026;-83
2022/11/19 05:11:34;;;;;;;0.93;0.80;;;;;;;;;;5093015;28;20387;-85
2022/11/19 05:14:00;;;;;;;0.70;0.60;;;;;;;;;;5091882;28;20036;-83
2022/11/19 05:16:25;;;;;;;0.93;0.77;;;;;;;;;;5092631;28;20026;-83
2022/11/19 05:18:50;;;;;;;16.65;2.10;;;;;;;;;;5091085;28;20036;-83
2022/11/19 05:21:16;;;;;;;2.95;1.83;;;;;;;;;;5092560;28;20107;-82
2022/11/19 05:23:41;;;;;;;1.60;1.35;;;;;;;;;;5092271;28;20400;-82
2022/11/19 05:26:07;;;;;;;0.68;0.55;;;;;;;;;;5090781;28;20383;-82
2022/11/19 05:28:32;;;;;;;1.23;0.70;;;;;;;;;;5091504;28;20555;-83
2022/11/19 05:30:58;;;;;;;1.25;1.00;;;;;;;;;;5091885;28;20115;-82
2022/11/19 05:33:23;;;;;;;0.90;0.90;;;;;;;;;;5090430;28;20019;-83
2022/11/19 05:35:49;;;;;;;1.48;1.02;;;;;;;;;;5091193;28;20043;-82
2022/11/19 05:38:14;;;;;;;1.23;0.88;;;;;;;;;;5089447;28;20104;-82
2022/11/19 05:40:42;;;;;;;5.18;1.48;;;;;;;;;;5091311;28;20080;-83
2022/11/19 05:43:07;;;;;;;0.88;0.50;;;;;;;;;;5090084;28;20020;-84
2022/11/19 05:45:33;;;;;;;0.43;0.43;;;;;;;;;;5090812;28;20492;-83
2022/11/19 05:47:58;;;;;;;0.40;0.40;;;;;;;;;;5089609;28;20141;-82
2022/11/19 05:50:24;;;;;;;1.40;0.98;;;;;;;;;;5088419;28;20061;-86
2022/11/19 05:52:49;;;;;;;0.95;0.60;;;;;;;;;;5089606;28;20148;-85
2022/11/19 05:55:15;;;;;;;2.15;1.25;;;;;;;;;;5087659;28;20023;-85
2022/11/19 05:57:41;;;;;;;1.95;0.70;;;;;;;;;;5091516;28;20027;-84
2022/11/19 06:00:08;;;;;;;0.75;0.75;;;;;;;;;;5091256;28;20040;-84
2022/11/19 06:02:33;;;;;;;1.02;0.68;;;;;;;;;;5088146;28;20047;-83
2022/11/19 06:04:58;;;;;;;0.98;0.80;;;;;;;;;;5091022;28;20484;-85
2022/11/19 06:07:24;;;;;;;1.35;1.08;;;;;;;;;;5090012;28;20016;-84
2022/11/19 06:09:49;;;;;;;0.60;0.60;;;;;;;;;;5090387;28;20032;-83
2022/11/19 06:12:15;;;;;;;0.80;0.52;;;;;;;;;;5088396;28;20058;-83
2022/11/19 06:14:40;;;;;;;0.63;0.63;;;;;;;;;;5089652;28;20047;-85
2022/11/19 06:17:06;;;;;;;3.10;1.52;;;;;;;;;;5091095;28;20028;-84
2022/11/19 06:19:32;;;;;;;7.13;1.48;;;;;;;;;;5089957;28;20020;-86
2022/11/19 06:21:58;;;;;;;0.88;0.73;;;;;;;;;;5086994;28;20026;-84
2022/11/19 06:24:24;;;;;;;1.40;1.27;;;;;;;;;;5088375;28;20073;-88
2022/11/19 06:26:49;;;;;;;0.75;0.75;;;;;;;;;;5090474;28;20020;-86
2022/11/19 06:29:16;;;;;;;0.55;0.50;;;;;;;;;;5089367;28;20032;-86
2022/11/19 06:31:42;;;;;;;1.20;1.02;;;;;;;;;;5090646;28;20108;-87
2022/11/19 06:34:08;;;;;;;2.03;1.27;;;;;;;;;;5091265;28;20059;-87
2022/11/19 06:36:33;;;;;;;0.98;0.55;;;;;;;;;;5090805;28;20032;-86
2022/11/19 06:38:59;;;;;;;0.95;0.60;;;;;;;;;;5090416;28;20028;-86
2022/11/19 06:41:24;;;;;;;0.75;0.68;;;;;;;;;;5089651;28;20051;-83
2022/11/19 06:43:50;;;;;;;0.70;0.57;;;;;;;;;;5090970;28;20016;-83
2022/11/19 06:46:15;;;;;;;0.77;0.43;;;;;;;;;;5090888;28;20071;-83
2022/11/19 06:48:41;;;;;;;0.90;0.70;;;;;;;;;;5090772;28;20125;-83
2022/11/19 06:51:07;;;;;;;0.70;0.60;;;;;;;;;;5089405;28;20397;-84
2022/11/19 06:53:33;;;;;;;1.45;0.90;;;;;;;;;;5088226;28;20024;-84
2022/11/19 06:56:04;;;;;;;1.33;0.40;;;;;;;;;;5093230;28;20026;-84
2022/11/19 06:58:30;;;;;;;0.50;0.50;;;;;;;;;;5093524;28;20020;-83
2022/11/19 07:00:55;;;;;;;7.40;1.23;;;;;;;;;;5089713;28;20032;-84
2022/11/19 07:03:22;;;;;;;1.75;1.15;;;;;;;;;;5094913;28;20081;-85
2022/11/19 07:05:48;;;;;;;0.70;0.70;;;;;;;;;;5094446;28;20063;-87
2022/11/19 07:08:14;;;;;;;1.27;1.08;;;;;;;;;;5094392;28;20097;-85
2022/11/19 07:10:40;;;;;;;1.30;1.10;;;;;;;;;;5091111;28;20028;-84
2022/11/19 07:13:05;;;;;;;1.38;1.00;;;;;;;;;;5091059;28;20025;-84
2022/11/19 07:15:31;;;;;;;2.17;1.30;;;;;;;;;;5093422;28;20379;-84
2022/11/19 07:17:56;;;;;;;3.50;2.70;;;;;;;;;;5093275;28;20032;-84
2022/11/19 07:20:21;;;;;;;11.43;6.38;;;;;;;;;;5092941;28;20027;-82
2022/11/19 07:22:47;;;;;;;3.55;2.53;;;;;;;;;;5094111;28;20035;-85
2022/11/19 07:25:12;;;;;;;4.82;3.20;;;;;;;;;;5094425;28;20066;-84
2022/11/19 07:27:39;;;;;;;2.28;1.95;;;;;;;;;;5093110;28;20150;-84
2022/11/19 07:30:06;;;;;;;4.40;2.95;;;;;;;;;;5092441;28;20032;-84
2022/11/19 07:32:35;;;;;;;2.10;1.52;;;;;;;;;;5090765;28;20039;-83
2022/11/19 07:35:00;;;;;;;1.45;0.95;;;;;;;;;;5092462;28;20071;-85
2022/11/19 07:37:25;;;;;;;0.95;0.80;;;;;;;;;;5092490;28;20059;-84
2022/11/19 07:39:51;;;;;;;1.92;0.93;;;;;;;;;;5089462;28;20027;-84
2022/11/19 07:45:01;;;;;;;2.58;1.15;;;;;;;;;;5092923;28;20058;-85
2022/11/19 07:47:27;;;;;;;5.03;2.35;;;;;;;;;;5092609;28;20060;-84
2022/11/19 07:49:53;;;;;;;2.58;1.02;;;;;;;;;;5091875;28;20769;-84
2022/11/19 07:52:18;;;;;;;0.50;0.50;;;;;;;;;;5087393;28;20364;-84
2022/11/19 07:54:43;;;;;;;1.55;1.27;;;;;;;;;;5088870;28;20048;-86
2022/11/19 07:57:10;;;;;;;0.70;0.65;;;;;;;;;;5092354;28;20049;-85
2022/11/19 07:59:36;;;;;;;1.48;1.08;;;;;;;;;;5091805;28;20042;-84
2022/11/19 08:02:01;;;;;;;1.48;1.15;;;;;;;;;;5089768;28;20452;-85
2022/11/19 08:04:27;;;;;;;1.65;0.85;;;;;;;;;;5092913;28;20415;-81
2022/11/19 08:06:53;;;;;;;2.08;1.13;;;;;;;;;;5091542;28;20055;-81
2022/11/19 08:09:18;;;;;;;1.23;0.68;;;;;;;;;;5090912;28;20044;-82
2022/11/19 08:11:44;;;;;;;0.80;0.65;;;;;;;;;;5092091;28;20024;-83
2022/11/19 08:14:13;;;;;;;0.73;0.57;;;;;;;;;;5093370;28;20104;-82
2022/11/19 08:19:23;;;;;;;2.03;1.50;;;;;;;;;;5093682;28;20034;-82
2022/11/19 08:21:49;;;;;;;2.80;1.67;;;;;;;;;;5089492;28;20019;-84
2022/11/19 08:24:16;;;;;;;1.33;1.17;;;;;;;;;;5092575;28;20027;-83
2022/11/19 08:26:42;;;;;;;2.05;1.17;;;;;;;;;;5090861;28;20380;-82
2022/11/19 08:29:08;;;;;;;1.75;1.30;;;;;;;;;;5093063;28;20032;-82
2022/11/19 08:31:33;;;;;;;1.90;1.05;;;;;;;;;;5092777;28;20032;-81
2022/11/19 08:34:02;;;;;;;2.35;1.48;;;;;;;;;;5092361;28;20024;-83
2022/11/19 08:36:28;;;;;;;1.88;1.40;;;;;;;;;;5091213;28;20383;-82
2022/11/19 08:38:57;;;;;;;1.23;0.95;;;;;;;;;;5091633;28;20039;-82
2022/11/19 08:44:06;;;;;;;1.65;0.85;;;;;;;;;;5091809;28;20046;-81
2022/11/19 08:46:34;;;;;;;1.77;0.93;;;;;;;;;;5092232;28;20480;-81
2022/11/19 08:48:59;;;;;;;1.52;0.98;;;;;;;;;;5092203;28;20471;-83
2022/11/19 08:51:24;;;;;;;1.20;1.00;;;;;;;;;;5086717;28;20038;-82
2022/11/19 08:53:51;;;;;;;2.00;1.25;;;;;;;;;;5092222;28;20032;-84
2022/11/19 08:56:17;;;;;;;1.60;1.00;;;;;;;;;;5091832;28;20024;-82
2022/11/19 08:58:43;;;;;;;1.02;0.93;;;;;;;;;;5092698;28;20498;-81
2022/11/19 09:01:10;;;;;;;1.83;1.23;;;;;;;;;;5092481;28;20024;-81
2022/11/19 09:03:35;;;;;;;2.35;1.23;;;;;;;;;;5093134;28;20024;-83
2022/11/19 09:06:00;;;;;;;2.05;1.52;;;;;;;;;;5090872;28;20023;-81
2022/11/19 09:08:26;;;;;;;1.05;0.85;;;;;;;;;;5092986;28;20423;-82
2022/11/19 09:10:51;;;;;;;1.08;0.73;;;;;;;;;;5088211;28;20036;-84
2022/11/19 09:13:16;;;;;;;0.73;0.70;;;;;;;;;;5090050;28;20031;-83
2022/11/19 09:15:42;;;;;;;2.25;1.13;;;;;;;;;;5091069;28;20027;-81
2022/11/19 09:18:07;;;;;;;1.33;0.90;;;;;;;;;;5091671;28;20484;-82
2022/11/19 09:20:34;;;;;;;2.28;0.80;;;;;;;;;;5093141;28;20164;-82
2022/11/19 09:23:00;;;;;;;0.52;0.50;;;;;;;;;;5090240;28;20028;-81
2022/11/19 09:25:25;;;;;;;0.75;0.60;;;;;;;;;;5093163;28;20034;-83
2022/11/19 09:27:51;;;;;;;1.00;0.75;;;;;;;;;;5092866;28;20031;-82
2022/11/19 09:30:16;;;;;;;1.13;0.77;;;;;;;;;;5091479;28;20020;-81
2022/11/19 09:32:41;;;;;;;1.15;1.00;;;;;;;;;;5092446;28;20016;-79
2022/11/19 09:35:07;;;;;;;1.60;1.17;;;;;;;;;;5090123;28;20106;-81
2022/11/19 09:37:34;;;;;;;1.73;0.98;;;;;;;;;;5091744;28;20031;-81
2022/11/19 09:40:00;;;;;;;3.95;1.00;;;;;;;;;;5091681;28;20453;-82
2022/11/19 09:43:13;;;;;;;1.20;0.82;;;;;;;;;;5091258;28;20020;-81
2022/11/19 09:46:00;;;;;;;1.50;0.98;;;;;;;;;;5076851;28;20511;-80
2022/11/19 09:48:35;;;;;;;0.85;0.80;;;;;;;;;;5091065;28;20031;-82
2022/11/19 09:51:09;;;;;;;1.10;0.98;;;;;;;;;;5092603;28;20048;-82
2022/11/19 09:53:47;;;;;;;1.30;0.90;;;;;;;;;;5091314;28;20030;-82
2022/11/19 09:56:20;;;;;;;2.90;1.67;;;;;;;;;;5088682;28;20035;-80
2022/11/19 09:58:46;;;;;;;1.33;1.08;;;;;;;;;;5091696;28;20036;-82
2022/11/19 10:01:14;;;;;;;1.55;1.20;;;;;;;;;;5088669;28;20027;-81
2022/11/19 10:03:45;;;;;;;1.60;1.15;;;;;;;;;;5092233;28;20028;-80
2022/11/19 10:06:13;;;;;;;1.25;0.95;;;;;;;;;;5091618;28;20090;-80
2022/11/19 10:08:45;;;;;;;1.30;0.65;;;;;;;;;;5092289;28;20028;-80
2022/11/19 10:11:31;;;;;;;1.05;0.70;;;;;;;;;;5091459;28;20024;-80
2022/11/19 10:14:31;;;;;;;1.75;1.05;;;;;;;;;;5086899;28;20020;-81
2022/11/19 10:17:10;;;;;;;0.68;0.68;;;;;;;;;;5088046;28;20089;-80
2022/11/19 10:20:08;;;;;;;2.13;1.13;;;;;;;;;;5089421;28;20038;-80
2022/11/19 10:22:40;;;;;;;1.27;0.98;;;;;;;;;;5089663;28;20051;-83
2022/11/19 10:25:16;;;;;;;1.58;1.08;;;;;;;;;;5092888;28;20020;-81
2022/11/19 10:27:51;;;;;;;7.68;1.10;;;;;;;;;;5090455;28;20059;-83
2022/11/19 10:30:20;;;;;;;2.00;0.98;;;;;;;;;;5093448;28;20028;-82
2022/11/19 10:33:24;;;;;;;1.43;0.87;;;;;;;;;;5094844;28;20028;-83
2022/11/19 10:35:56;;;;;;;0.85;0.73;;;;;;;;;;5096769;28;20494;-82
2022/11/19 10:38:47;;;;;;;1.83;1.02;;;;;;;;;;5093647;28;20487;-83
2022/11/19 10:41:21;;;;;;;1.75;1.00;;;;;;;;;;5090411;28;20036;-82
2022/11/19 10:44:00;;;;;;;2.33;1.00;;;;;;;;;;5093172;28;20039;-84
2022/11/19 10:46:27;;;;;;;1.07;0.70;;;;;;;;;;5093505;28;20040;-82
2022/11/19 10:49:03;;;;;;;0.77;0.52;;;;;;;;;;5093504;28;20292;-83
2022/11/19 10:51:41;;;;;;;0.98;0.77;;;;;;;;;;5093875;28;20387;-82
2022/11/19 10:54:22;;;;;;;0.50;0.50;;;;;;;;;;5092932;28;20031;-84
2022/11/19 10:56:50;;;;;;;0.60;0.60;;;;;;;;;;5092016;28;20104;-81
2022/11/19 10:59:22;;;;;;;0.68;0.40;;;;;;;;;;5091738;28;20024;-81
2022/11/19 11:01:51;;;;;;;1.20;0.90;;;;;;;;;;5091317;28;20154;-83
2022/11/19 11:04:27;;;;;;;1.42;0.70;;;;;;;;;;5090889;28;20036;-83
2022/11/19 11:07:04;;;;;;;1.35;0.70;;;;;;;;;;5092712;28;20031;-80
2022/11/19 11:09:34;;;;;;;2.65;0.73;;;;;;;;;;5090515;28;20560;-80
2022/11/19 11:15:21;;;;;;;0.85;0.75;;;;;;;;;;5092525;28;20078;-81
2022/11/19 11:18:03;;;;;;;1.20;0.75;;;;;;;;;;5092809;28;20035;-81
2022/11/19 11:20:29;;;;;;;1.45;0.68;;;;;;;;;;5090672;28;20098;-81
2022/11/19 11:23:26;;;;;;;0.50;0.50;;;;;;;;;;5091191;28;20027;-80
2022/11/19 11:26:02;;;;;;;1.45;0.80;;;;;;;;;;5085336;28;20036;-81
2022/11/19 11:28:28;;;;;;;1.00;0.65;;;;;;;;;;5093226;28;20024;-81
2022/11/19 11:31:04;;;;;;;0.80;0.55;;;;;;;;;;5092777;28;20019;-80
2022/11/19 11:33:31;;;;;;;1.67;0.90;;;;;;;;;;5093157;28;20387;-80
2022/11/19 11:36:09;;;;;;;1.80;0.90;;;;;;;;;;5092334;28;20471;-80
2022/11/19 11:38:41;;;;;;;1.10;0.65;;;;;;;;;;5093249;28;20496;-80
2022/11/19 11:41:12;;;;;;;1.08;0.90;;;;;;;;;;5092499;28;20028;-79
2022/11/19 11:43:39;;;;;;;1.80;1.17;;;;;;;;;;5093091;28;20415;-80
2022/11/19 11:46:09;;;;;;;1.58;1.13;;;;;;;;;;5092605;28;20036;-81
2022/11/19 11:48:44;;;;;;;1.23;0.70;;;;;;;;;;5092466;28;20426;-82
2022/11/19 11:51:33;;;;;;;0.95;0.85;;;;;;;;;;5091891;28;20110;-80
2022/11/19 11:54:20;;;;;;;1.58;0.93;;;;;;;;;;5092072;28;20118;-82
2022/11/19 11:56:46;;;;;;;2.10;1.20;;;;;;;;;;5093529;28;20039;-81
2022/11/19 11:59:32;;;;;;;3.35;1.25;;;;;;;;;;5093522;28;20023;-80
2022/11/19 12:02:06;;;;;;;3.55;1.35;;;;;;;;;;5090601;28;20114;-79
2022/11/19 12:04:32;;;;;;;2.90;1.70;;;;;;;;;;5092306;28;20414;-79
2022/11/19 12:07:11;;;;;;;2.05;1.27;;;;;;;;;;5092819;28;20472;-82
2022/11/19 12:09:54;;;;;;;2.22;1.02;;;;;;;;;;5091537;28;20479;-81
2022/11/19 12:12:24;;;;;;;1.20;1.10;;;;;;;;;;5091953;28;20050;-81
2022/11/19 12:15:08;;;;;;;2.03;1.45;;;;;;;;;;5088054;28;20024;-84
2022/11/19 12:17:52;;;;;;;1.98;1.00;;;;;;;;;;5093851;28;20417;-83
2022/11/19 12:20:23;;;;;;;1.58;1.30;;;;;;;;;;5093909;28;20044;-84
2022/11/19 12:23:14;;;;;;;1.67;1.10;;;;;;;;;;5093204;28;20034;-85
2022/11/19 12:25:50;;;;;;;1.92;1.00;;;;;;;;;;5089696;28;20132;-81
2022/11/19 12:28:25;;;;;;;3.72;1.40;;;;;;;;;;5093248;28;20090;-81
2022/11/19 12:30:53;;;;;;;1.60;0.93;;;;;;;;;;5091921;28;20039;-86
2022/11/19 12:33:27;;;;;;;2.58;1.52;;;;;;;;;;5092276;28;20165;-84
2022/11/19 12:36:13;;;;;;;2.20;1.40;;;;;;;;;;5090574;28;20031;-82
2022/11/19 12:38:48;;;;;;;2.35;1.45;;;;;;;;;;5092873;28;20035;-81
2022/11/19 12:41:17;;;;;;;2.38;1.45;;;;;;;;;;5089748;28;20468;-81
2022/11/19 12:43:57;;;;;;;1.95;0.90;;;;;;;;;;5092604;28;20023;-80
2022/11/19 12:47:03;;;;;;;2.15;1.33;;;;;;;;;;5087920;28;20051;-83
2022/11/19 12:50:00;;;;;;;2.20;1.17;;;;;;;;;;5088324;28;20028;-79
2022/11/19 12:53:14;;;;;;;2.33;1.17;;;;;;;;;;5074254;28;20169;-82
2022/11/19 12:56:13;;;;;;;2.03;1.20;;;;;;;;;;5047672;28;20028;-83
2022/11/19 12:58:51;;;;;;;1.73;1.13;;;;;;;;;;5090991;28;20363;-81
2022/11/19 13:01:25;;;;;;;4.57;1.05;;;;;;;;;;5091626;28;20094;-82
2022/11/19 13:04:19;;;;;;;2.95;1.63;;;;;;;;;;5091872;28;20031;-82
2022/11/19 13:07:02;;;;;;;1.65;1.10;;;;;;;;;;5091355;28;20065;-85
2022/11/19 13:10:00;;;;;;;2.28;1.27;;;;;;;;;;5091470;28;20089;-83
2022/11/19 13:12:40;;;;;;;2.05;1.20;;;;;;;;;;5090864;28;20479;-85
2022/11/19 13:15:34;;;;;;;3.70;1.92;;;;;;;;;;5092112;28;20035;-84
2022/11/19 13:18:05;;;;;;;2.50;1.23;;;;;;;;;;5087752;28;20483;-86
2022/11/19 13:20:47;;;;;;;1.88;1.17;;;;;;;;;;5089724;28;20020;-84
2022/11/19 13:23:29;;;;;;;1.75;1.08;;;;;;;;;;5092458;28;20484;-84
2022/11/19 13:26:02;;;;;;;2.42;1.35;;;;;;;;;;5088823;28;20032;-83
2022/11/19 13:28:45;;;;;;;3.47;1.73;;;;;;;;;;5091116;28;20020;-86
2022/11/19 13:31:22;;;;;;;1.63;1.10;;;;;;;;;;5086944;28;20361;-82
2022/11/19 13:33:55;;;;;;;1.83;1.20;;;;;;;;;;5091714;28;20494;-82
2022/11/19 13:36:40;;;;;;;7.00;1.88;;;;;;;;;;5087497;28;20028;-82
2022/11/19 13:39:46;;;;;;;1.13;0.98;;;;;;;;;;5088513;28;20123;-82
2022/11/19 13:44:58;;;;;;;3.15;2.08;;;;;;;;;;5089159;28;20101;-82
2022/11/19 13:47:41;;;;;;;2.88;2.15;;;;;;;;;;5090896;28;20028;-83
2022/11/19 13:50:18;;;;;;;2.15;1.38;;;;;;;;;;5089270;28;20023;-83
2022/11/19 13:52:52;;;;;;;5.15;2.15;;;;;;;;;;5091338;28;20028;-82
2022/11/19 13:55:27;;;;;;;4.43;2.30;;;;;;;;;;5091219;28;20471;-81
2022/11/19 13:57:53;;;;;;;3.65;1.70;;;;;;;;;;5090703;28;20027;-82
2022/11/19 14:00:26;;;;;;;6.20;2.05;;;;;;;;;;5090205;28;20024;-84
2022/11/19 14:02:58;;;;;;;4.40;2.05;;;;;;;;;;5090100;28;20047;-82
2022/11/19 14:05:23;;;;;;;4.63;1.83;;;;;;;;;;5091840;28;20085;-83
2022/11/19 14:08:46;;;;;;;2.67;1.50;;;;;;;;;;5095035;28;20106;-83
2022/11/19 14:11:29;;;;;;;5.50;3.35;;;;;;;;;;5052981;28;20080;-84
2022/11/19 14:14:06;;;;;;;4.95;2.58;;;;;;;;;;5053005;28;20107;-84
2022/11/19 14:28:47;;;;;;;1.52;1.17;;;;;;;;;;5094911;28;20051;-82
2022/11/19 14:31:15;;;;;;;2.22;1.23;;;;;;;;;;5093510;28;20424;-85
2022/11/19 14:34:03;;;;;;;0.82;0.68;;;;;;;;;;5094139;28;20031;-84
2022/11/19 14:36:42;;;;;;;2.58;1.40;;;;;;;;;;5094946;28;20040;-85
2022/11/19 14:39:24;;;;;;;3.50;1.35;;;;;;;;;;5092620;28;20067;-81
2022/11/19 14:42:11;;;;;;;3.40;1.50;;;;;;;;;;5094275;28;20036;-83
2022/11/19 14:44:37;;;;;;;1.38;1.10;;;;;;;;;;5091756;28;20182;-82
2022/11/19 14:47:21;;;;;;;2.10;1.42;;;;;;;;;;5093616;28;20111;-85
2022/11/19 14:49:51;;;;;;;2.25;1.40;;;;;;;;;;5093502;28;20038;-83
2022/11/19 14:52:23;;;;;;;2.15;1.17;;;;;;;;;;5094868;28;20023;-81
2022/11/19 14:54:59;;;;;;;2.53;0.77;;;;;;;;;;5092771;28;20086;-79
2022/11/19 14:57:34;;;;;;;0.50;0.47;;;;;;;;;;5093027;28;20466;-81
2022/11/19 15:00:24;;;;;;;2.67;1.38;;;;;;;;;;5092184;28;20085;-80
2022/11/19 15:02:52;;;;;;;0.80;0.60;;;;;;;;;;5091768;28;20058;-84
2022/11/19 15:05:22;;;;;;;5.00;1.55;;;;;;;;;;5094485;28;20034;-83
2022/11/19 15:08:08;;;;;;;2.45;1.25;;;;;;;;;;5094289;28;20024;-82
2022/11/19 15:10:45;;;;;;;2.33;1.73;;;;;;;;;;5091526;28;20054;-83
2022/11/19 15:13:22;;;;;;;3.50;1.98;;;;;;;;;;5092517;28;20050;-84
2022/11/19 15:15:51;;;;;;;2.42;1.92;;;;;;;;;;5092721;28;20081;-81
2022/11/19 15:18:39;;;;;;;3.33;1.88;;;;;;;;;;5092614;28;20031;-81
2022/11/19 15:21:23;;;;;;;1.77;1.45;;;;;;;;;;5089348;28;20044;-81
2022/11/19 15:24:22;;;;;;;5.30;2.15;;;;;;;;;;5089493;28;20111;-81
2022/11/19 15:27:06;;;;;;;1.43;1.33;;;;;;;;;;5093919;28;20028;-81
2022/11/19 15:29:44;;;;;;;4.75;1.40;;;;;;;;;;5093798;28;20027;-82
2022/11/19 15:32:29;;;;;;;2.05;1.30;;;;;;;;;;5092146;28;20077;-82
2022/11/19 15:35:14;;;;;;;1.40;0.93;;;;;;;;;;5092116;28;20035;-81
2022/11/19 15:38:07;;;;;;;0.88;0.73;;;;;;;;;;5093099;28;20028;-81
2022/11/19 15:40:33;;;;;;;1.77;0.70;;;;;;;;;;5093294;28;20028;-80
2022/11/19 15:43:10;;;;;;;0.73;0.63;;;;;;;;;;5093061;28;20107;-80
2022/11/19 15:45:44;;;;;;;1.58;0.75;;;;;;;;;;5090915;28;20124;-81
2022/11/19 15:48:24;;;;;;;1.13;0.82;;;;;;;;;;5093000;28;20095;-80